createdAt,value
2018-12-21T00:18:10.312Z,73.35
2018-12-21T00:23:03.584Z,73.33
2018-12-21T00:27:56.870Z,73.86
2018-12-21T00:32:55.439Z,74.08
2018-12-21T00:37:54.283Z,74.12
2018-12-21T00:48:07.720Z,74.06
2018-12-21T00:53:01.002Z,73.46
2018-12-21T00:57:54.282Z,73.81
2018-12-21T01:02:47.653Z,73.65
2018-12-21T01:23:54.931Z,73.31
2018-12-21T01:28:48.184Z,72.55
2018-12-21T01:33:41.463Z,73.13
2018-12-21T01:38:34.757Z,72.94
2018-12-21T01:43:28.043Z,72.74
2018-12-21T02:04:35.707Z,72.00
2018-12-21T02:09:28.968Z,72.21
2018-12-21T02:14:22.253Z,71.97
2018-12-21T02:19:15.520Z,72.01
2018-12-21T02:24:08.810Z,72.37
2018-12-21T02:39:51.785Z,72.14
2018-12-21T02:44:45.055Z,72.27
2018-12-21T02:49:38.332Z,72.03
2018-12-21T02:54:31.622Z,71.76
2018-12-21T03:15:39.552Z,72.69
2018-12-21T03:20:32.887Z,72.83
2018-12-21T03:25:26.163Z,73.57
2018-12-21T03:30:19.549Z,73.63
2018-12-21T03:35:13.024Z,73.35
2018-12-21T03:56:21.042Z,74.38
2018-12-21T04:01:14.360Z,74.21
2018-12-21T04:06:07.656Z,74.04
2018-12-21T04:11:01.156Z,73.24
2018-12-21T04:32:08.544Z,71.87
2018-12-21T04:37:01.888Z,71.40
2018-12-21T04:41:55.209Z,70.58
2018-12-21T04:46:48.550Z,70.60
2018-12-21T04:51:41.843Z,70.28
2018-12-21T05:12:49.074Z,70.93
2018-12-21T05:17:42.348Z,71.03
2018-12-21T05:22:35.692Z,71.26
2018-12-21T05:27:29.118Z,71.06
2018-12-21T05:32:22.730Z,71.95
2018-12-21T05:37:16.077Z,72.78
2018-12-21T05:42:09.454Z,72.24
2018-12-21T05:47:02.731Z,72.97
2018-12-21T06:08:10.604Z,73.33
2018-12-21T06:13:03.935Z,72.20
2018-12-21T06:17:57.282Z,71.28
2018-12-21T06:22:50.595Z,70.64
2018-12-21T06:27:43.874Z,69.97
2018-12-21T06:48:51.738Z,64.67
2018-12-21T06:53:45.077Z,65.03
2018-12-21T06:58:38.351Z,64.36
2018-12-21T07:03:31.717Z,64.26
2018-12-21T07:08:25.098Z,64.11
2018-12-21T07:24:07.938Z,65.18
2018-12-21T07:29:01.227Z,66.07
2018-12-21T07:33:54.511Z,66.46
2018-12-21T07:38:47.927Z,67.05
2018-12-21T07:59:55.175Z,70.37
2018-12-21T08:04:48.489Z,71.03
2018-12-21T08:09:41.922Z,71.98
2018-12-21T08:14:35.189Z,71.76
2018-12-21T08:19:28.700Z,72.16
2018-12-21T08:24:22.080Z,73.71
2018-12-21T08:29:15.480Z,74.64
2018-12-21T08:34:08.894Z,75.57
2018-12-21T08:39:02.263Z,74.45
2018-12-21T09:00:12.640Z,74.47
2018-12-21T09:05:06.838Z,74.98
2018-12-21T09:10:00.249Z,75.44
2018-12-21T09:14:54.165Z,75.58
2018-12-21T09:19:48.106Z,76.20
2018-12-21T09:40:55.637Z,76.06
2018-12-21T09:45:48.921Z,76.82
2018-12-21T09:50:42.938Z,77.23
2018-12-21T09:55:36.291Z,77.64
2018-12-21T10:16:43.563Z,76.77
2018-12-21T10:21:36.920Z,77.23
2018-12-21T10:26:35.347Z,77.52
2018-12-21T10:31:36.427Z,76.93
2018-12-21T10:52:50.507Z,74.92
2018-12-21T10:57:50.971Z,75.82
2018-12-21T11:08:03.851Z,76.39
2018-12-21T11:13:02.541Z,76.66
2018-12-21T11:18:01.580Z,77.53
2018-12-21T11:22:59.992Z,78.54
2018-12-21T11:27:57.383Z,78.42
2018-12-21T11:49:05.401Z,79.92
2018-12-21T11:53:58.684Z,79.00
2018-12-21T11:58:51.998Z,78.31
2018-12-21T12:03:45.289Z,77.71
2018-12-21T12:08:38.641Z,78.01
2018-12-21T12:13:32.843Z,78.79
2018-12-21T12:18:26.190Z,79.94
2018-12-21T12:23:20.745Z,80.33
2018-12-21T12:28:14.055Z,80.36
2018-12-21T12:33:09.758Z,81.25
2018-12-21T12:54:20.731Z,81.71
2018-12-21T12:59:14.163Z,81.59
2018-12-21T13:04:07.504Z,81.95
2018-12-21T13:09:01.135Z,82.89
2018-12-21T13:30:09.164Z,85.10
2018-12-21T13:35:02.530Z,85.57
2018-12-21T13:39:55.806Z,85.74
2018-12-21T13:44:49.405Z,86.34
2018-12-21T13:49:42.705Z,86.12
2018-12-21T14:05:25.846Z,85.23
2018-12-21T14:10:19.241Z,86.12
2018-12-21T14:15:12.595Z,85.86
2018-12-21T14:20:09.139Z,86.24
2018-12-21T14:41:17.033Z,88.45
2018-12-21T14:46:10.383Z,88.58
2018-12-21T14:51:03.951Z,87.78
2018-12-21T14:55:57.244Z,88.47
2018-12-21T15:00:50.526Z,88.42
2018-12-21T15:05:43.831Z,88.61
2018-12-21T15:10:37.122Z,88.69
2018-12-21T15:15:30.519Z,89.44
2018-12-21T15:20:23.791Z,89.00
2018-12-21T15:41:31.329Z,89.93
2018-12-21T15:46:24.693Z,90.13
2018-12-21T15:51:18.148Z,89.87
2018-12-21T15:56:11.435Z,89.98
2018-12-21T16:01:04.737Z,89.84
2018-12-21T16:22:12.732Z,89.77
2018-12-21T16:27:05.987Z,89.46
2018-12-21T16:31:59.286Z,89.54
2018-12-21T16:36:52.584Z,89.29
2018-12-21T16:58:00.335Z,89.82
2018-12-21T17:02:53.702Z,89.46
2018-12-21T17:07:46.998Z,88.80
2018-12-21T17:12:40.304Z,89.12
2018-12-21T17:17:33.569Z,89.52
2018-12-21T17:38:40.829Z,89.74
2018-12-21T17:43:34.183Z,89.86
2018-12-21T17:48:27.450Z,89.42
2018-12-21T17:53:20.752Z,89.65
2018-12-21T18:14:28.781Z,90.89
2018-12-21T18:19:22.073Z,91.31
2018-12-21T18:24:15.648Z,91.40
2018-12-21T18:29:08.916Z,90.95
2018-12-21T18:34:04.730Z,91.33
2018-12-21T18:49:47.467Z,90.87
2018-12-21T18:54:40.734Z,90.33
2018-12-21T18:59:34.039Z,90.19
2018-12-21T19:04:27.348Z,90.33
2018-12-21T19:25:34.831Z,90.16
2018-12-21T19:30:28.249Z,90.24
2018-12-21T19:35:27.646Z,90.69
2018-12-21T19:40:16.867Z,91.21
2018-12-21T19:45:10.371Z,90.92
2018-12-21T19:50:06.476Z,91.18
2018-12-21T19:55:03.847Z,90.50
2018-12-21T19:59:57.120Z,90.64
2018-12-21T20:04:50.406Z,90.85
2018-12-21T20:25:58.492Z,91.40
2018-12-21T20:30:51.830Z,91.21
2018-12-21T20:35:45.166Z,91.49
2018-12-21T20:40:38.445Z,92.46
2018-12-21T20:45:31.884Z,92.27
2018-12-21T21:06:39.748Z,92.75
2018-12-21T21:11:33.027Z,92.44
2018-12-21T21:16:26.362Z,92.59
2018-12-21T21:21:19.650Z,92.05
2018-12-21T21:42:26.997Z,92.30
2018-12-21T21:47:20.291Z,92.20
2018-12-21T21:52:13.570Z,91.42
2018-12-21T21:57:06.929Z,92.03
2018-12-21T22:02:00.261Z,92.53
2018-12-21T22:23:08.037Z,92.48
2018-12-21T22:28:01.299Z,92.86
2018-12-21T22:32:54.617Z,92.75
2018-12-21T22:37:47.910Z,92.85
2018-12-21T22:58:55.826Z,91.32
2018-12-21T23:03:49.121Z,91.09
2018-12-21T23:08:42.416Z,90.69
2018-12-21T23:13:35.776Z,90.86
2018-12-21T23:18:29.074Z,89.33
2018-12-21T23:34:37.883Z,86.33
2018-12-21T23:39:31.249Z,85.86
2018-12-21T23:44:24.568Z,85.30
2018-12-21T23:49:17.883Z,84.78
2018-12-21T23:54:11.258Z,84.21
